Pico Rivera, California
Current Conditions -  °F | °C
As of 8:53 PM on Wednesday 22 Oct 2014 (Local Time) from KFUL Reporting Station
Clear Clear  
Wind Chill: 71°   Ceiling: Unl
Heat Index: 71°   Visibility: 10mi
Dew Point: 57°   Wind: 0mph
Humidity: 61%   Direction: NA
Pressure: 29.93"   Gusts: NA
Location:  33.98°N, 118.08°W
Report Text: KFUL 230353Z 00000KT 10SM CLR 22/14 A2993 RMK AO2 SLP134 T02170139 $
Loading
Personal Weather Stations






























Interactive Weather Map New forecast layout! Learn more

10-Day Weather Forecast

Advertisements
Track Severe Weather on mobile